Hlavní strana
METAR-TAF:

METAR-TAF

Letiště :

Aktobe, Kazachstán

zeměpisná šířka: 50-17N, zeměpisná délka: 057-09E, výška: 227 m

Aktuální stav počasí

Zpráva byla vytvořena před 40 minutami, v 09:30 UTC
Jižní vítr 10 kt
Teplota -4°C
Vlhkost vzduchu 68%
Tlak 1021 hPa
Viditelnost 10 km a více
Žádná oblačnost pod 1500 m, nevyskytují se cumulonimby.

METAR: UATT 210930Z 18005MPS CAVOK M04/M09 Q1021 R13/810255 NOSIG RMK QFE746/0995

Čas: 15:10 (10:10 UTC)

Předpověď počasí

Zpráva byla vytvořena před 5 hodinami a 10 minutami, v 05:00 UTC
Předpověď platná od 21 v 06 UTC do 22 v 06 UTC
Jihojihovýchodní vítr 10 kt
Viditelnost: 3100 m
Polojasno ve výšce 1100 ft
kouřmo
Od 21 v 0800 UTC
Jižní vítr 16 kt
Viditelnost 10 km a více
Polojasno ve výšce 1500 ft
Dočasný
od 21 v 20 UTC do 22 v 06 UTC
Jižní vítr 25 kt

TAF: UATT 210500Z 2106/2206 16005MPS 3100 BR SCT011 TXM04/2111Z TNM11/2106Z FM210800 17008MPS 9999 SCT015 TEMPO 2120/2206 18013MPS

Stav a předpovědi počasí z více než 4 000 letišť (zprávy METAR a TAF).

Červené a žluté tečky na mapě představují dostupné meteorologické stanice.

Když kurzor umístíte na tečku, zobrazí se název stanice.

Pak kliknutím zobrazíte stav a předpověď počasí.

Chcete-li změnit mapu, kliknutím na zelené tlačítko se znaménkem +mapu přiblížíte, kliknutím na zelené tlačítko se znaménkem – mapu oddálíte a kliknutím na zelené šipky přejdete na sousední mapy.


METAR-TAF: